KMWM/MWM METAR and TAF weather

Enter ICAO airport designator
Station Type Date Time Source
KMWM METAR 2021/05/13 04:55 UTC NOAA

KMWM 130455Z AUTO 18003KT 10SM CLR 10/M03 A3035 RMK AO2


Station Type Date Time Source
KMWM Decoded METAR 2021/05/13 04:55 UTC NOAA

Windom, Windom Municipal Airport, MN, United States (KMWM) 43-54-48N 095-06-34W
May 13, 2021 - 12:55 AM EDT / 2021.05.13 0455 UTC
Wind: from the S (180 degrees) at 3 MPH (3 KT):0
Visibility: 10 mile(s):0
Sky conditions: clear
Temperature: 50 F (10 C)
Dew Point: 26 F (-3 C)
Relative Humidity: 39%
Pressure (altimeter): 30.35 in. Hg (1027 hPa)
ob: KMWM 130455Z AUTO 18003KT 10SM CLR 10/M03 A3035 RMK AO2
cycle: 5

Station Type Date Time Source
KMWM TAF UTC NOAA

Error!

Example: see airport list